Last 24 Hours

Canyon Lodge - 8,343ft

5 Minute Data | America/Los_Angeles
as of 5/9/26 4:26 PM PDT
Date & Time Temp (°F) RH (%) Dew Pt (°F) Wet Bulb (°F) Wind Dir (°) Wind Spd (mph) Wind Gust (mph) Wind Gst Dir (°)
5/9/26 - 1625 67.5 24 29.8 48.8 NNW | 331 4.2 15.2 NW | 312
5/9/26 - 1620 67.3 24 29.7 48.7 NNW | 328 1.5 7.1 NW | 317
5/9/26 - 1615 66.4 24 28.8 48.1 NNW | 336 2.6 7.4 N | 10
5/9/26 - 1610 66.9 24 29.2 48.4 NNW | 337 3.1 8.4 NNW | 330
5/9/26 - 1605 66.4 24 28.1 47.9 NNE | 12 3.6 8.6 N | 2
5/9/26 - 1600 67.1 24 28.9 48.4 NNE | 18 0.8 5.2 NNW | 345
5/9/26 - 1555 67.6 24 29.2 48.7 N | 3 0.9 5.3 N | 1
5/9/26 - 1550 67.6 24 29.6 48.8 NNE | 28 2.2 6.1 NNW | 330
5/9/26 - 1545 66.8 24 28.4 48.1 NNE | 27 4.0 11.5 NNE | 21
5/9/26 - 1540 67.2 24 29.3 48.6 NNE | 18 1.8 6.9 N | 6
5/9/26 - 1535 67.3 24 29.2 48.6 ESE | 103 1.0 5.3 ESE | 110
5/9/26 - 1530 67.3 24 29.1 48.5 NNE | 32 1.4 7.0 N | 1
5/9/26 - 1525 66.6 24 28.9 48.2 N | 5 5.6 13.8 NNW | 348
5/9/26 - 1520 66.9 24 29.2 48.4 N | 11 5.6 14.1 N | 0
5/9/26 - 1515 67.4 25 30.6 49.1 NNW | 328 4.1 8.8 WNW | 299
5/9/26 - 1510 66.6 24 29.1 48.3 WSW | 246 2.0 7.5 NNW | 330
5/9/26 - 1505 66.3 25 29.0 48.1 NNW | 338 3.7 10.5 N | 10
5/9/26 - 1500 67.7 24 29.7 48.9 N | 10 2.4 12.4 N | 0
5/9/26 - 1455 67.8 25 30.4 49.1 SE | 125 0.7 4.1 WNW | 288
5/9/26 - 1450 66.5 25 30.0 48.5 N | 349 1.6 5.2 NNE | 23
5/9/26 - 1445 66.2 24 28.8 48.0 NNE | 13 3.8 8.7 NNE | 26
5/9/26 - 1440 67.1 25 30.0 48.8 N | 9 2.4 6.9 NNE | 17
5/9/26 - 1435 67.0 25 29.9 48.7 S | 178 1.6 5.3 S | 177
5/9/26 - 1430 66.2 25 29.1 48.1 SSE | 161 1.6 4.1 SSE | 161
5/9/26 - 1425 67.6 24 29.9 48.9 ENE | 77 1.1 6.3 N | 7
5/9/26 - 1420 66.8 25 29.7 48.5 E | 101 0.4 4.4 NE | 35
5/9/26 - 1415 64.9 26 29.2 47.7 NNW | 337 2.7 8.1 N | 6
5/9/26 - 1410 65.1 25 28.6 47.6 N | 352 4.4 10.7 NW | 323
5/9/26 - 1405 66.0 25 29.5 48.2 N | 350 5.0 12.7 NNE | 27
5/9/26 - 1400 64.6 25 27.7 47.1 NNE | 15 4.4 11.4 NNE | 17
5/9/26 - 1355 65.9 25 29.1 48.0 N | 349 2.6 7.2 N | 7
5/9/26 - 1350 64.4 24 27.2 46.9 N | 2 4.7 9.6 NE | 40
5/9/26 - 1345 64.8 24 27.6 47.1 NNE | 21 5.1 10.5 N | 4
5/9/26 - 1340 65.0 24 27.5 47.2 N | 5 3.4 6.9 NNE | 25
5/9/26 - 1335 66.0 24 28.4 47.9 N | 10 3.7 8.8 N | 11
5/9/26 - 1330 66.3 24 28.9 48.1 SSE | 148 1.4 7.8 S | 180
5/9/26 - 1325 66.7 25 29.7 48.5 SSE | 152 1.1 8.5 S | 188
5/9/26 - 1320 64.1 25 27.3 46.8 NNE | 13 2.0 5.3 NNE | 29
5/9/26 - 1315 64.2 25 27.9 47.0 E | 96 1.5 8.0 NE | 38
5/9/26 - 1310 63.8 26 28.1 46.9 NNW | 337 4.7 10.5 NNE | 17
5/9/26 - 1305 63.2 25 26.6 46.2 NNE | 15 4.1 11.5 NNE | 20
5/9/26 - 1300 65.5 25 28.9 47.8 NE | 39 1.4 7.5 NNE | 19
5/9/26 - 1255 64.3 25 28.0 47.1 N | 9 2.4 6.5 NNW | 347
5/9/26 - 1250 63.5 25 27.4 46.6 N | 4 2.5 9.2 N | 0
5/9/26 - 1245 64.4 25 28.1 47.2 SE | 134 2.9 7.6 S | 173
5/9/26 - 1240 64.6 26 28.6 47.4 NNW | 347 4.7 7.7 N | 0
5/9/26 - 1235 64.4 25 27.9 47.1 ENE | 60 0.7 3.2 E | 95
5/9/26 - 1230 63.6 25 27.1 46.5 NNE | 32 1.6 7.0 NNE | 16
5/9/26 - 1225 63.9 25 27.6 46.8 NE | 48 1.1 4.9 ENE | 66
5/9/26 - 1220 62.2 26 26.9 45.9 N | 2 3.2 9.2 NW | 326
5/9/26 - 1215 63.0 26 28.0 46.6 NW | 306 5.2 12.6 NNW | 334
5/9/26 - 1210 62.9 26 27.1 46.3 E | 97 2.3 5.9 ESE | 106
5/9/26 - 1205 62.8 25 26.6 46.1 S | 180 0.5 2.7 E | 96
5/9/26 - 1200 61.2 25 25.0 45.0 NE | 44 1.4 6.3 NE | 50
5/9/26 - 1155 62.3 25 26.2 45.8 N | 7 3.2 7.7 NNE | 26
5/9/26 - 1150 60.4 26 25.0 44.6 N | 354 3.8 10.1 N | 350
5/9/26 - 1145 60.9 25 25.1 44.9 N | 11 3.2 10.0 NNE | 15
5/9/26 - 1140 61.6 25 25.9 45.4 NNE | 12 2.1 5.9 N | 9
5/9/26 - 1135 60.5 26 25.2 44.8 NNE | 25 1.9 7.7 NNE | 20
5/9/26 - 1130 60.8 26 25.4 44.9 NE | 53 1.9 6.3 ESE | 117
5/9/26 - 1125 60.3 26 25.4 44.7 NNE | 16 2.3 6.7 NNE | 28
5/9/26 - 1120 60.8 27 26.2 45.2 N | 355 4.1 12.2 NNE | 18
5/9/26 - 1115 60.8 27 26.5 45.2 ESE | 122 0.9 3.0 SSE | 156
5/9/26 - 1110 60.8 28 27.4 45.5 NNE | 14 1.7 6.7 E | 94
5/9/26 - 1105 60.4 29 27.7 45.4 N | 2 1.9 7.3 NW | 321
5/9/26 - 1100 59.5 28 26.0 44.5 NNE | 14 2.3 7.6 N | 3
5/9/26 - 1055 60.2 29 27.7 45.3 NNW | 340 2.1 7.2 NNW | 342
5/9/26 - 1050 60.2 28 26.7 45.0 ESE | 109 1.2 6.1 NNW | 335
5/9/26 - 1045 58.2 28 25.0 43.7 NNE | 20 4.2 11.2 NNE | 20
5/9/26 - 1040 59.4 29 26.8 44.7 NNW | 330 2.7 8.2 NNE | 26
5/9/26 - 1035 58.4 28 25.8 44.0 NE | 41 2.6 8.1 NNE | 24
5/9/26 - 1030 59.9 30 28.6 45.5 SSW | 196 0.4 2.3 S | 182
5/9/26 - 1025 59.2 30 27.7 44.9 S | 175 1.0 3.6 SSW | 206
5/9/26 - 1020 58.3 30 27.2 44.4 NNE | 23 2.8 6.3 N | 5
5/9/26 - 1015 59.1 31 28.4 45.1 SSW | 206 0.8 7.1 N | 0
5/9/26 - 1010 57.6 31 27.2 44.0 WNW | 303 2.6 7.6 NNW | 342
5/9/26 - 1005 58.0 31 27.2 44.2 WSW | 240 1.9 6.8 N | 0
5/9/26 - 1000 58.3 31 27.6 44.5 SSW | 198 1.3 5.3 S | 189
5/9/26 - 0955 57.8 31 27.5 44.2 SSW | 197 1.1 3.7 SSW | 195
5/9/26 - 0950 56.7 30 25.7 43.2 NNE | 33 1.5 4.9 NNE | 19
5/9/26 - 0945 57.5 32 27.7 44.2 NNE | 18 0.8 3.9 NE | 34
5/9/26 - 0940 57.5 32 27.6 44.1 N | 3 0.1 1.9 NNE | 27
5/9/26 - 0935 55.6 32 26.0 42.8 N | 11 2.0 5.9 NNE | 25
5/9/26 - 0930 56.0 31 26.2 43.0 N | 354 1.9 6.8 NW | 317
5/9/26 - 0925 55.5 31 25.6 42.6 N | 2 3.3 6.5 NNE | 21
5/9/26 - 0920 56.1 30 25.3 42.8 NE | 35 1.6 5.3 NE | 35
5/9/26 - 0915 56.5 31 26.5 43.4 NNE | 15 0.4 2.3 N | 0
5/9/26 - 0910 55.7 31 25.4 42.7 NNE | 31 1.5 5.5 NNE | 32
5/9/26 - 0905 56.0 32 26.2 43.0 NE | 45 0.5 5.1 NNE | 16
5/9/26 - 0900 55.7 31 25.9 42.8 E | 79 0.8 4.7 N | 3
5/9/26 - 0855 55.7 32 26.5 43.0 NE | 37 0.5 3.2 NE | 38
5/9/26 - 0850 55.5 32 26.3 42.8 N | 1 0.4 3.4 NNE | 15
5/9/26 - 0845 54.1 31 24.3 41.6 N | 5 1.3 5.2 N | 5
5/9/26 - 0840 54.7 32 25.3 42.2 N | 8 0.7 2.7 N | 4
5/9/26 - 0835 55.5 32 26.2 42.8 NNE | 23 0.6 2.9 NNE | 30
5/9/26 - 0830 56.1 32 26.3 43.1 NE | 44 0.0 1.0 NNE | 32
5/9/26 - 0825 56.0 32 26.9 43.2 N | 0 0.0 0.0 NE | 53
5/9/26 - 0820 54.9 34 27.0 42.8 E | 88 0.0 0.6 E | 91
5/9/26 - 0815 55.2 33 26.7 42.8 N | 0 0.0 0.0 N | 10
5/9/26 - 0810 54.8 32 25.4 42.2 ENE | 74 0.1 1.1 NE | 44
5/9/26 - 0805 54.3 32 25.2 42.0 E | 80 0.1 0.6 ENE | 61
5/9/26 - 0800 53.4 33 25.1 41.5 SSW | 203 0.0 0.7 SW | 215
5/9/26 - 0755 53.1 33 24.8 41.3 ESE | 110 0.0 0.7 ESE | 119
5/9/26 - 0750 52.9 32 24.1 41.0 ESE | 103 0.2 1.0 ESE | 117
5/9/26 - 0745 52.9 32 23.7 40.9 E | 90 0.0 0.9 E | 92
5/9/26 - 0740 52.1 33 23.8 40.5 NNW | 341 0.6 3.0 NW | 324
5/9/26 - 0735 51.7 33 23.4 40.2 NNW | 344 0.9 2.7 NW | 323
5/9/26 - 0730 51.6 33 23.2 40.1 NNW | 330 1.4 4.2 NW | 321
5/9/26 - 0725 51.2 32 22.3 39.7 SE | 124 0.3 1.4 E | 93
5/9/26 - 0720 51.1 32 22.2 39.6 SE | 128 0.0 0.7 SE | 139
5/9/26 - 0715 50.1 33 21.8 38.9 S | 182 0.1 1.0 SSW | 209
5/9/26 - 0710 48.6 33 20.4 37.8 SSW | 203 0.1 0.9 SSW | 212
5/9/26 - 0705 46.0 32 17.6 35.7 SSE | 158 0.0 0.5 SSE | 163
5/9/26 - 0700 45.6 33 17.9 35.6 SE | 140 0.1 1.1 N | 2
5/9/26 - 0655 45.5 33 17.9 35.6 N | 354 1.2 3.0 N | 4
5/9/26 - 0650 45.2 31 16.2 35.0 ENE | 69 0.1 1.1 NE | 39
5/9/26 - 0645 45.6 31 17.0 35.4 N | 0 0.0 0.0 SW | 214
5/9/26 - 0640 44.3 31 15.5 34.3 NNE | 27 0.0 0.2 NNE | 27
5/9/26 - 0635 43.9 30 14.7 34.0 ESE | 108 0.0 0.1 ESE | 108
5/9/26 - 0630 43.5 30 14.2 33.6 NE | 39 0.0 0.3 WSW | 254
5/9/26 - 0625 42.9 31 14.2 33.3 N | 0 0.0 0.0 NE | 55
5/9/26 - 0620 42.9 31 14.2 33.3 N | 0 0.0 0.0 N | 3
5/9/26 - 0615 43.5 33 16.5 34.1 W | 266 0.5 2.5 WNW | 284
5/9/26 - 0610 43.4 33 16.3 34.0 W | 259 0.6 3.4 W | 266
5/9/26 - 0605 42.8 33 16.0 33.6 SW | 236 1.0 3.6 WSW | 242
5/9/26 - 0600 42.8 34 16.1 33.6 SSW | 212 1.3 3.6 SSW | 200
5/9/26 - 0555 43.4 32 15.6 33.9 SW | 232 1.3 4.1 SW | 236
5/9/26 - 0550 42.3 33 15.3 33.2 SW | 215 0.6 2.5 SSW | 207
5/9/26 - 0545 42.0 33 15.2 33.0 SSW | 198 0.6 4.9 S | 189
5/9/26 - 0540 42.5 33 15.5 33.3 SSW | 192 0.6 5.3 S | 183
5/9/26 - 0535 42.8 33 15.5 33.5 SSW | 204 0.4 2.0 SSW | 204
5/9/26 - 0530 43.5 33 16.0 34.0 WSW | 246 0.7 3.9 WSW | 252
5/9/26 - 0525 44.0 33 17.0 34.5 WSW | 248 1.8 4.7 W | 260
5/9/26 - 0520 44.1 33 16.7 34.5 WSW | 240 2.0 4.5 WSW | 255
5/9/26 - 0515 43.7 32 16.0 34.2 WSW | 243 1.2 4.5 WSW | 245
5/9/26 - 0510 43.3 32 15.7 33.8 SW | 234 0.2 2.0 SW | 226
5/9/26 - 0505 43.5 32 15.6 33.9 SW | 225 0.3 2.4 SSW | 204
5/9/26 - 0500 43.9 31 15.1 34.0 SW | 235 1.5 5.1 SW | 215
5/9/26 - 0455 43.6 31 14.7 33.8 WSW | 250 0.8 4.0 W | 262
5/9/26 - 0450 44.6 30 15.4 34.5 SW | 235 2.1 4.5 SW | 219
5/9/26 - 0445 44.0 30 14.9 34.0 WSW | 253 2.2 4.4 WSW | 249
5/9/26 - 0440 45.2 31 16.0 34.9 WSW | 248 2.0 3.9 SW | 214
5/9/26 - 0435 44.6 30 15.3 34.5 SW | 232 1.6 4.4 WSW | 248
5/9/26 - 0430 45.2 31 16.1 35.0 SW | 226 2.4 5.5 WSW | 246
5/9/26 - 0425 46.0 31 17.1 35.6 SW | 214 2.8 6.1 SSW | 213
5/9/26 - 0420 45.5 31 17.0 35.4 SW | 215 2.8 5.2 SSW | 211
5/9/26 - 0415 45.4 31 16.4 35.2 SW | 222 2.6 5.9 SW | 224
5/9/26 - 0410 45.7 31 16.6 35.4 SW | 218 3.3 6.8 SW | 220
5/9/26 - 0405 45.3 31 16.3 35.1 SW | 220 2.0 5.2 SW | 215
5/9/26 - 0400 46.1 31 17.2 35.7 SW | 217 2.7 5.6 SW | 220
5/9/26 - 0355 46.3 30 16.7 35.7 SSW | 213 3.5 6.5 SW | 218
5/9/26 - 0350 46.2 30 16.4 35.6 SW | 217 2.8 5.4 SSW | 205
5/9/26 - 0345 45.9 30 16.0 35.3 SW | 215 2.5 6.1 SW | 222
5/9/26 - 0340 45.4 30 15.6 35.0 SW | 227 1.8 4.5 SW | 223
5/9/26 - 0335 44.8 31 15.7 34.7 SW | 230 1.8 4.3 SW | 217
5/9/26 - 0330 44.2 31 15.1 34.2 WSW | 246 1.9 4.3 W | 260
5/9/26 - 0325 44.9 30 15.2 34.6 SW | 236 1.2 3.5 W | 269
5/9/26 - 0320 45.9 30 15.8 35.3 SW | 225 2.2 4.3 SSW | 212
5/9/26 - 0315 46.6 30 16.8 35.9 SW | 221 3.0 5.9 SW | 222
5/9/26 - 0310 45.7 30 16.3 35.3 SW | 231 2.2 4.9 SW | 226
5/9/26 - 0305 45.9 30 16.0 35.3 WSW | 248 3.0 5.8 WSW | 238
5/9/26 - 0300 45.3 30 15.3 34.9 WSW | 252 2.8 5.5 WSW | 248
5/9/26 - 0255 45.2 30 15.3 34.8 W | 260 2.6 5.1 WNW | 287
5/9/26 - 0250 45.2 29 14.6 34.6 WSW | 255 1.4 3.3 WSW | 244
5/9/26 - 0245 45.3 29 14.5 34.7 WSW | 240 1.0 4.1 WSW | 254
5/9/26 - 0240 45.3 29 14.6 34.7 WSW | 242 1.6 4.9 SW | 223
5/9/26 - 0235 45.2 29 14.5 34.6 SW | 225 0.5 3.2 SSW | 201
5/9/26 - 0230 45.4 28 14.3 34.7 SW | 233 1.6 4.4 SSW | 205
5/9/26 - 0225 45.3 28 14.2 34.6 SW | 224 0.3 3.2 SSW | 192
5/9/26 - 0220 45.2 28 13.9 34.5 SW | 222 0.9 2.6 WSW | 255
5/9/26 - 0215 45.0 27 13.2 34.3 WNW | 290 0.2 2.5 W | 267
5/9/26 - 0210 45.3 28 13.9 34.6 WSW | 246 1.3 4.6 WSW | 242
5/9/26 - 0205 45.3 28 13.8 34.6 SW | 236 1.1 4.0 WSW | 252
5/9/26 - 0200 44.9 28 13.5 34.3 WSW | 257 0.9 4.2 WSW | 240
5/9/26 - 0155 44.9 28 13.4 34.3 SW | 217 1.0 5.3 S | 177
5/9/26 - 0150 45.6 28 14.4 34.9 SW | 233 0.8 3.4 SW | 224
5/9/26 - 0145 44.9 29 14.5 34.5 SW | 227 0.4 2.5 SSW | 192
5/9/26 - 0140 45.6 29 15.0 35.0 WSW | 244 1.2 3.0 W | 260
5/9/26 - 0135 45.7 28 14.9 35.0 WSW | 252 2.3 4.7 W | 266
5/9/26 - 0130 46.2 28 15.0 35.3 WSW | 246 2.2 4.8 WSW | 240
5/9/26 - 0125 45.3 28 13.9 34.6 SW | 228 0.7 3.3 SSW | 193
5/9/26 - 0120 45.2 27 13.6 34.4 SSW | 212 0.6 4.5 S | 185
5/9/26 - 0115 45.6 28 14.2 34.8 SW | 236 0.5 3.1 WSW | 241
5/9/26 - 0110 44.9 27 13.2 34.2 SSW | 204 1.0 4.2 SSW | 207
5/9/26 - 0105 45.8 28 14.5 35.0 WSW | 243 0.3 2.0 WSW | 244
5/9/26 - 0100 45.9 28 14.4 35.0 SW | 219 0.9 4.8 S | 187
5/9/26 - 0055 46.4 28 15.3 35.5 WSW | 240 2.4 5.0 WSW | 241
5/9/26 - 0050 46.7 28 15.3 35.6 WSW | 239 1.5 3.9 SSW | 206
5/9/26 - 0045 46.1 28 14.5 35.2 WSW | 248 2.0 4.8 WSW | 253
5/9/26 - 0040 46.4 27 14.6 35.4 WSW | 240 3.1 6.2 WSW | 256
5/9/26 - 0035 46.1 27 14.0 35.0 SW | 223 0.8 3.6 SW | 217
5/9/26 - 0030 44.8 27 12.6 34.0 SW | 217 0.1 1.3 SW | 236
5/9/26 - 0025 45.0 26 12.6 34.2 SW | 227 0.0 0.7 SSW | 202
5/9/26 - 0020 45.9 27 13.5 34.8 SW | 215 0.4 2.4 SSW | 206
5/9/26 - 0015 46.1 27 13.7 35.0 SSW | 201 2.1 5.0 SSW | 199
5/9/26 - 0010 46.4 27 14.0 35.2 SW | 220 0.3 1.9 SSW | 202
5/9/26 - 0005 48.2 27 15.6 36.5 SW | 227 2.0 5.2 SW | 216
5/9/26 - 0000 48.0 26 15.2 36.3 SSW | 211 3.0 5.4 SW | 221
5/8/26 - 2355 47.3 27 14.7 35.8 SW | 218 0.8 4.3 SW | 236
5/8/26 - 2350 47.3 27 14.7 35.8 SW | 226 0.8 2.5 WSW | 250
5/8/26 - 2345 47.7 26 14.1 36.0 SSW | 206 0.8 2.8 SSW | 206
5/8/26 - 2340 47.8 26 14.2 36.0 SW | 229 0.9 2.7 SW | 215
5/8/26 - 2335 47.6 25 13.2 35.7 SW | 233 0.7 2.5 WSW | 258
5/8/26 - 2330 47.8 25 13.6 35.9 WSW | 248 0.9 3.8 WSW | 255
5/8/26 - 2325 48.2 25 13.9 36.2 WSW | 251 1.3 3.8 WSW | 241
5/8/26 - 2320 48.1 25 13.9 36.1 WSW | 252 1.6 4.7 WSW | 256
5/8/26 - 2315 48.2 25 13.6 36.1 WSW | 239 1.0 4.3 WSW | 242
5/8/26 - 2310 48.2 24 13.2 36.0 WSW | 251 0.7 4.3 WSW | 237
5/8/26 - 2305 48.2 24 13.2 36.0 SW | 221 1.1 4.9 S | 170
5/8/26 - 2300 48.2 24 13.4 36.1 W | 261 1.1 3.9 WSW | 240
5/8/26 - 2255 48.3 24 13.4 36.1 W | 264 1.8 5.2 WNW | 286
5/8/26 - 2250 48.3 24 13.4 36.1 W | 269 2.0 4.8 W | 261
5/8/26 - 2245 48.6 24 13.5 36.3 W | 267 1.6 4.3 WSW | 246
5/8/26 - 2240 47.8 24 12.7 35.7 W | 272 1.7 4.2 WSW | 241
5/8/26 - 2235 48.1 24 12.8 35.9 W | 264 2.2 6.4 W | 267
5/8/26 - 2230 48.1 24 12.6 35.9 W | 262 2.3 6.0 W | 280
5/8/26 - 2225 48.6 24 13.2 36.2 WSW | 241 2.5 6.2 WSW | 242
5/8/26 - 2220 48.8 24 13.4 36.4 SW | 224 3.6 7.5 SSW | 201
5/8/26 - 2215 47.5 23 11.6 35.4 WSW | 252 1.5 4.5 SW | 234
5/8/26 - 2210 47.0 23 11.0 35.0 W | 261 1.2 3.7 W | 259
5/8/26 - 2205 47.3 23 11.3 35.2 WSW | 256 1.7 4.4 WSW | 249
5/8/26 - 2200 47.6 23 11.5 35.4 WSW | 257 1.0 4.9 WSW | 241
5/8/26 - 2155 48.6 23 12.3 36.0 WSW | 255 1.4 4.3 WSW | 246
5/8/26 - 2150 49.3 23 12.8 36.5 WSW | 251 0.7 3.7 WSW | 238
5/8/26 - 2145 50.6 23 13.9 37.4 WSW | 249 2.6 6.0 W | 272
5/8/26 - 2140 50.6 23 13.9 37.4 WSW | 247 1.7 4.9 W | 268
5/8/26 - 2135 51.0 23 14.2 37.7 WSW | 256 2.0 5.9 WSW | 243
5/8/26 - 2130 51.8 23 14.9 38.3 WSW | 240 0.8 3.3 WSW | 239
5/8/26 - 2125 51.3 23 14.7 37.9 W | 260 0.9 3.6 WNW | 285
5/8/26 - 2120 50.2 22 13.0 37.0 WNW | 292 0.3 4.0 NNW | 345
5/8/26 - 2115 49.0 22 11.9 36.2 S | 187 0.4 2.0 S | 180
5/8/26 - 2110 48.3 22 11.4 35.8 SW | 223 0.0 1.2 SW | 215
5/8/26 - 2105 48.4 22 11.5 35.8 S | 191 0.1 1.6 S | 173
5/8/26 - 2100 49.2 22 12.3 36.4 SSW | 199 0.5 2.8 SSW | 192
5/8/26 - 2055 49.0 22 11.5 36.2 SSW | 207 0.1 1.4 SW | 215
5/8/26 - 2050 48.4 22 10.9 35.7 SSW | 192 0.0 0.5 SSW | 192
5/8/26 - 2045 48.2 22 10.8 35.6 SSW | 202 0.2 1.7 SSW | 197
5/8/26 - 2040 48.1 22 10.6 35.5 S | 190 0.0 0.8 SSW | 195
5/8/26 - 2035 49.1 22 11.5 36.2 N | 0 0.0 0.0 SW | 223
5/8/26 - 2030 49.5 22 12.2 36.5 SSE | 167 0.2 2.8 SSE | 159
5/8/26 - 2025 49.8 22 12.7 36.8 W | 280 0.3 2.0 N | 1
5/8/26 - 2020 49.7 22 12.2 36.6 WSW | 244 0.0 0.2 WSW | 238
5/8/26 - 2015 49.8 22 12.4 36.7 SSE | 167 0.0 0.6 S | 183
5/8/26 - 2010 50.3 23 13.6 37.2 NW | 313 0.2 2.0 NW | 307
5/8/26 - 2005 50.2 22 13.3 37.1 S | 187 0.0 0.3 SSW | 201
5/8/26 - 2000 50.7 23 14.6 37.6 N | 0 0.0 0.0 N | 8
5/8/26 - 1955 51.6 24 15.9 38.3 W | 278 0.3 2.6 WSW | 254
5/8/26 - 1950 51.6 23 15.5 38.3 SW | 219 0.3 2.5 SSW | 192
5/8/26 - 1945 52.0 24 15.9 38.5 SSW | 206 0.5 2.1 SSW | 196
5/8/26 - 1940 52.0 23 15.6 38.5 SSW | 201 0.4 2.0 SSW | 203
5/8/26 - 1935 51.9 23 15.5 38.4 SSW | 195 0.6 2.9 S | 188
5/8/26 - 1930 52.6 22 15.0 38.6 N | 0 0.0 0.0 SW | 234
5/8/26 - 1925 53.6 23 16.8 39.5 SSW | 201 0.1 1.7 SSW | 206
5/8/26 - 1920 54.0 23 17.5 39.9 N | 0 0.0 0.0 NW | 319
5/8/26 - 1915 54.6 24 18.5 40.4 WNW | 287 0.1 1.4 W | 266
5/8/26 - 1910 56.0 24 19.3 41.2 NNW | 337 0.2 3.5 NE | 52
5/8/26 - 1905 56.3 23 19.4 41.4 S | 182 0.4 4.0 SSW | 194
5/8/26 - 1900 56.6 23 19.4 41.6 S | 188 2.5 6.8 S | 184
5/8/26 - 1855 56.7 24 19.9 41.7 S | 184 1.8 6.9 S | 184
5/8/26 - 1850 56.8 24 20.1 41.8 S | 174 1.7 7.8 S | 174
5/8/26 - 1845 56.9 24 20.4 41.9 SSW | 199 0.8 5.3 SSE | 167
5/8/26 - 1840 57.2 25 21.5 42.3 SW | 229 1.1 3.6 SW | 233
5/8/26 - 1835 57.4 25 21.7 42.4 SW | 227 1.0 6.2 WSW | 244
5/8/26 - 1830 57.6 25 22.4 42.7 WSW | 239 2.0 5.3 W | 263
5/8/26 - 1825 57.8 25 21.9 42.7 SW | 229 2.3 7.3 SSW | 201
5/8/26 - 1820 57.9 25 22.0 42.8 SW | 232 2.2 7.9 SSW | 201
5/8/26 - 1815 58.2 25 22.4 43.0 WSW | 246 3.4 10.6 WSW | 256
5/8/26 - 1810 58.5 25 22.4 43.2 SW | 223 2.6 10.4 SSW | 212
5/8/26 - 1805 58.4 25 22.8 43.2 SW | 224 4.9 10.9 SW | 225
5/8/26 - 1800 58.7 25 23.4 43.4 SW | 231 3.4 7.7 W | 266
5/8/26 - 1755 58.8 25 23.2 43.4 WSW | 244 4.2 8.9 WSW | 255
5/8/26 - 1750 58.9 25 23.5 43.6 WSW | 247 3.7 9.3 WSW | 247
5/8/26 - 1745 59.4 25 23.6 43.8 WSW | 237 4.4 11.3 WSW | 255
5/8/26 - 1740 59.7 25 24.0 44.1 SW | 214 3.0 11.2 SSW | 212
5/8/26 - 1735 60.3 25 24.6 44.5 WSW | 244 3.2 8.5 W | 274
5/8/26 - 1730 60.3 26 24.9 44.6 SW | 220 3.7 10.3 SSW | 204
5/8/26 - 1725 60.5 25 24.9 44.7 SW | 226 3.3 10.6 W | 262
5/8/26 - 1720 60.4 26 25.1 44.7 SSW | 212 3.1 9.2 SSW | 196
5/8/26 - 1715 61.0 25 25.2 45.0 SW | 231 2.5 7.6 WSW | 255
5/8/26 - 1710 61.5 25 25.4 45.2 WSW | 239 2.4 7.3 WSW | 250
5/8/26 - 1705 60.9 25 24.6 44.7 SSW | 197 3.8 8.5 SSW | 201
5/8/26 - 1700 60.9 25 24.9 44.8 SSW | 208 1.7 6.6 SSW | 198
5/8/26 - 1655 61.5 25 25.4 45.2 WSW | 258 1.6 5.3 WNW | 291
5/8/26 - 1650 61.2 25 24.8 45.0 SSW | 207 3.3 10.1 S | 176
5/8/26 - 1645 61.1 24 24.5 44.8 SSW | 199 2.6 7.9 SW | 231
5/8/26 - 1640 61.6 25 25.1 45.2 S | 170 2.3 6.4 SSW | 195
5/8/26 - 1635 61.1 25 24.7 44.9 S | 191 2.0 7.2 SSW | 194
5/8/26 - 1630 61.2 25 25.0 45.0 SSW | 211 2.5 6.5 WSW | 255
5/8/26 - 1625 61.6 25 25.2 45.2 S | 169 1.8 7.2 SSW | 195
Max 67.8 34 30.6 49.1 - 5.6 15.2 -
Avg 53.7 27 20.4 40.3 - 1.6 5.1 -
Min 42.0 22 10.6 33.0 - 0.0 0.0 -